createdAt,value
2019-04-06T00:00:40.569Z,100200.73
2019-04-06T00:03:09.237Z,100198.80
2019-04-06T00:05:37.709Z,100197.77
2019-04-06T00:08:06.231Z,100200.13
2019-04-06T00:10:35.059Z,100200.84
2019-04-06T00:13:03.491Z,100202.49
2019-04-06T00:15:32.145Z,100203.52
2019-04-06T00:18:01.042Z,100197.53
2019-04-06T00:20:29.523Z,100193.20
2019-04-06T00:22:57.952Z,100200.72
2019-04-06T00:25:26.471Z,100200.95
2019-04-06T00:27:54.864Z,100210.91
2019-04-06T00:30:23.527Z,100205.25
2019-04-06T00:32:53.639Z,100203.20
2019-04-06T00:35:22.255Z,100211.73
2019-04-06T00:37:50.870Z,100210.91
2019-04-06T00:40:19.823Z,100212.67
2019-04-06T00:42:48.752Z,100215.34
2019-04-06T00:45:17.339Z,100215.86
2019-04-06T00:47:45.748Z,100216.69
2019-04-06T00:50:14.489Z,100222.12
2019-04-06T00:52:42.917Z,100216.06
2019-04-06T00:55:11.607Z,100220.91
2019-04-06T00:57:40.060Z,100224.22
2019-04-06T01:00:09.026Z,100227.72
2019-04-06T01:02:37.587Z,100223.79
2019-04-06T01:05:07.543Z,100225.76
2019-04-06T01:07:36.013Z,100224.53
2019-04-06T01:10:06.114Z,100230.48
2019-04-06T01:12:34.747Z,100224.86
2019-04-06T01:15:03.457Z,100228.55
2019-04-06T01:17:32.094Z,100234.54
2019-04-06T01:20:00.562Z,100244.19
2019-04-06T01:22:29.578Z,100237.30
2019-04-06T01:24:58.053Z,100239.16
2019-04-06T01:27:26.641Z,100241.32
2019-04-06T01:29:55.511Z,100245.53
2019-04-06T01:32:23.935Z,100245.84
2019-04-06T01:34:52.680Z,100244.50
2019-04-06T01:37:21.220Z,100243.68
2019-04-06T01:39:49.717Z,100244.50
2019-04-06T01:42:19.667Z,100244.42
2019-04-06T01:44:48.138Z,100246.98
2019-04-06T01:47:16.794Z,100250.36
2019-04-06T01:49:45.258Z,100253.23
2019-04-06T01:52:14.101Z,100257.48
2019-04-06T01:54:43.001Z,100251.81
2019-04-06T01:57:11.461Z,100245.63
2019-04-06T01:59:40.065Z,100247.16
2019-04-06T02:02:26.767Z,100252.40
2019-04-06T02:04:55.770Z,100250.98
2019-04-06T02:07:24.253Z,100247.98
2019-04-06T02:09:52.746Z,100247.35
2019-04-06T02:12:21.282Z,100246.44
2019-04-06T02:14:49.829Z,100247.14
2019-04-06T02:17:18.262Z,100245.69
2019-04-06T02:19:46.772Z,100250.63
2019-04-06T02:22:15.191Z,100246.19
2019-04-06T02:24:43.937Z,100249.28
2019-04-06T02:27:12.719Z,100244.83
2019-04-06T02:29:41.300Z,100248.20
2019-04-06T02:32:20.269Z,100245.84
2019-04-06T02:35:08.565Z,100257.56
2019-04-06T02:37:47.916Z,100255.51
2019-04-06T02:40:23.979Z,100258.06
2019-04-06T02:42:59.951Z,100259.71
2019-04-06T02:45:28.421Z,100259.71
2019-04-06T02:47:57.210Z,100265.16
2019-04-06T02:50:25.713Z,100267.01
2019-04-06T02:52:54.223Z,100267.52
2019-04-06T02:55:22.697Z,100272.23
2019-04-06T02:57:51.224Z,100266.48
2019-04-06T03:00:19.774Z,100265.65
2019-04-06T03:02:48.711Z,100272.02
2019-04-06T03:05:17.192Z,100265.84
2019-04-06T03:07:45.604Z,100267.05
2019-04-06T03:10:14.468Z,100265.81
2019-04-06T03:12:42.953Z,100259.83
2019-04-06T03:15:11.950Z,100261.27
2019-04-06T03:17:40.354Z,100262.60
2019-04-06T03:20:08.972Z,100264.96
2019-04-06T03:22:37.422Z,100258.98
2019-04-06T03:25:07.845Z,100261.33
2019-04-06T03:27:36.331Z,100260.50
2019-04-06T03:30:07.064Z,100259.36
2019-04-06T03:32:35.714Z,100264.93
2019-04-06T03:35:04.936Z,100260.70
2019-04-06T03:37:33.397Z,100255.45
2019-04-06T03:40:02.052Z,100253.80
2019-04-06T03:42:30.597Z,100251.81
2019-04-06T03:44:59.702Z,100256.15
2019-04-06T03:47:28.379Z,100256.34
2019-04-06T03:49:57.097Z,100262.12
2019-04-06T03:52:25.679Z,100259.52
2019-04-06T03:54:54.085Z,100258.09
2019-04-06T03:57:22.602Z,100260.16
2019-04-06T03:59:51.140Z,100256.84
2019-04-06T04:02:19.688Z,100261.49
2019-04-06T04:04:48.184Z,100258.91
2019-04-06T04:07:16.761Z,100254.91
2019-04-06T04:09:45.942Z,100255.52
2019-04-06T04:12:14.344Z,100255.60
2019-04-06T04:14:42.957Z,100255.60
2019-04-06T04:17:11.448Z,100255.95
2019-04-06T04:19:39.874Z,100258.53
2019-04-06T04:22:08.281Z,100254.39
2019-04-06T04:24:36.737Z,100250.06
2019-04-06T04:27:05.343Z,100248.73
2019-04-06T04:29:33.880Z,100247.33
2019-04-06T04:32:02.586Z,100246.60
2019-04-06T04:34:31.135Z,100243.93
2019-04-06T04:36:59.498Z,100240.91
2019-04-06T04:39:28.046Z,100243.07
2019-04-06T04:41:56.466Z,100245.14
2019-04-06T04:44:25.127Z,100242.39
2019-04-06T04:46:53.575Z,100248.58
2019-04-06T04:49:22.088Z,100249.30
2019-04-06T04:51:50.574Z,100256.20
2019-04-06T04:54:19.024Z,100259.93
2019-04-06T04:56:47.406Z,100262.70
2019-04-06T04:59:15.796Z,100264.23
2019-04-06T05:01:44.668Z,100265.38
2019-04-06T05:04:13.296Z,100265.56
2019-04-06T05:06:42.140Z,100272.88
2019-04-06T05:09:10.523Z,100269.70
2019-04-06T05:11:39.325Z,100274.34
2019-04-06T05:14:44.079Z,100276.19
2019-04-06T05:17:12.711Z,100274.85
2019-04-06T05:19:41.222Z,100279.50
2019-04-06T05:22:09.900Z,100278.26
2019-04-06T05:24:38.551Z,100283.55
2019-04-06T05:27:07.405Z,100280.64
2019-04-06T05:29:35.959Z,100285.61
2019-04-06T05:32:04.616Z,100294.67
2019-04-06T05:34:33.080Z,100290.09
2019-04-06T05:37:01.609Z,100297.38
2019-04-06T05:39:30.236Z,100296.55
2019-04-06T05:41:58.751Z,100293.30
2019-04-06T05:44:27.703Z,100295.06
2019-04-06T05:46:56.308Z,100294.06
2019-04-06T05:49:24.696Z,100294.31
2019-04-06T05:51:53.231Z,100295.79
2019-04-06T05:54:22.140Z,100294.47
2019-04-06T05:56:50.623Z,100299.02
2019-04-06T05:59:19.016Z,100299.14
2019-04-06T06:01:49.003Z,100302.05
2019-04-06T06:04:17.831Z,100306.48
2019-04-06T06:06:46.684Z,100301.73
2019-04-06T06:09:15.149Z,100298.45
2019-04-06T06:11:43.857Z,100306.03
2019-04-06T06:14:12.394Z,100315.31
2019-04-06T06:16:40.925Z,100315.63
2019-04-06T06:19:09.498Z,100308.92
2019-04-06T06:21:37.901Z,100311.91
2019-04-06T06:24:06.691Z,100314.16
2019-04-06T06:26:35.157Z,100324.16
2019-04-06T06:29:03.842Z,100321.78
2019-04-06T06:31:32.263Z,100328.16
2019-04-06T06:34:01.014Z,100320.21
2019-04-06T06:36:29.579Z,100321.94
2019-04-06T06:38:58.601Z,100328.75
2019-04-06T06:41:27.035Z,100320.70
2019-04-06T06:43:55.762Z,100325.87
2019-04-06T06:46:24.427Z,100326.17
2019-04-06T06:48:53.143Z,100327.47
2019-04-06T06:51:21.569Z,100325.89
2019-04-06T06:53:50.006Z,100336.59
2019-04-06T06:56:18.423Z,100337.94
2019-04-06T06:58:46.916Z,100331.55
2019-04-06T07:01:15.435Z,100331.86
2019-04-06T07:03:44.272Z,100332.17
2019-04-06T07:06:12.759Z,100337.30
2019-04-06T07:08:41.227Z,100338.23
2019-04-06T07:11:09.930Z,100332.27
2019-04-06T07:13:38.781Z,100330.56
2019-04-06T07:16:07.278Z,100336.02
2019-04-06T07:18:35.852Z,100336.47
2019-04-06T07:21:04.778Z,100333.77
2019-04-06T07:23:33.277Z,100335.09
2019-04-06T07:26:01.840Z,100334.08
2019-04-06T07:28:37.443Z,100329.78
2019-04-06T07:31:00.419Z,100334.94
2019-04-06T07:33:28.838Z,100326.67
2019-04-06T07:35:57.594Z,100331.69
2019-04-06T07:38:26.383Z,100332.73
2019-04-06T07:40:55.037Z,100331.94
2019-04-06T07:43:24.039Z,100337.12
2019-04-06T07:45:52.906Z,100332.86
2019-04-06T07:48:21.621Z,100331.02
2019-04-06T07:50:50.051Z,100332.30
2019-04-06T07:53:18.635Z,100334.20
2019-04-06T07:55:47.115Z,100335.84
2019-04-06T07:58:16.071Z,100336.94
2019-04-06T08:00:44.994Z,100333.48
2019-04-06T08:03:13.746Z,100334.08
2019-04-06T08:05:42.451Z,100331.97
2019-04-06T08:08:11.185Z,100326.64
2019-04-06T08:10:39.822Z,100329.44
2019-04-06T08:13:08.410Z,100331.05
2019-04-06T08:15:36.889Z,100323.83
2019-04-06T08:18:05.339Z,100324.95
2019-04-06T08:20:33.900Z,100321.28
2019-04-06T08:23:02.323Z,100319.86
2019-04-06T08:25:30.847Z,100324.08
2019-04-06T08:27:59.808Z,100311.00
2019-04-06T08:30:28.753Z,100318.19
2019-04-06T08:32:57.295Z,100316.39
2019-04-06T08:35:26.857Z,100319.78
2019-04-06T08:37:55.444Z,100319.65
2019-04-06T08:40:23.971Z,100316.78
2019-04-06T08:42:52.602Z,100320.94
2019-04-06T08:45:21.307Z,100322.56
2019-04-06T08:47:49.847Z,100320.42
2019-04-06T08:50:18.343Z,100316.17
2019-04-06T08:52:46.793Z,100318.07
2019-04-06T08:55:15.368Z,100314.66
2019-04-06T08:57:43.752Z,100312.78
2019-04-06T09:00:12.343Z,100316.59
2019-04-06T09:02:40.921Z,100315.19
2019-04-06T09:05:10.008Z,100310.24
2019-04-06T09:07:40.572Z,100314.59
2019-04-06T09:10:08.834Z,100310.48
2019-04-06T09:12:37.310Z,100307.12
2019-04-06T09:15:08.505Z,100306.86
2019-04-06T09:17:37.084Z,100303.88
2019-04-06T09:20:07.600Z,100300.28
2019-04-06T09:22:36.156Z,100303.38
2019-04-06T09:25:06.881Z,100301.70
2019-04-06T09:27:35.669Z,100292.28
2019-04-06T09:30:05.550Z,100290.05
2019-04-06T09:32:34.032Z,100288.16
2019-04-06T09:35:02.857Z,100284.89
2019-04-06T09:37:31.412Z,100292.75
2019-04-06T09:39:59.877Z,100284.22
2019-04-06T09:42:28.717Z,100287.53
2019-04-06T09:45:01.606Z,100284.05
2019-04-06T09:47:31.641Z,100283.23
2019-04-06T09:50:04.465Z,100281.94
2019-04-06T09:52:43.615Z,100286.91
2019-04-06T09:55:19.759Z,100278.46
2019-04-06T09:58:06.716Z,100277.10
2019-04-06T10:00:48.938Z,100277.83
2019-04-06T10:03:35.391Z,100268.24
2019-04-06T10:06:08.298Z,100273.66
2019-04-06T10:08:44.294Z,100275.56
2019-04-06T10:11:30.551Z,100272.09
2019-04-06T10:14:09.736Z,100269.41
2019-04-06T10:16:39.804Z,100268.96
2019-04-06T10:19:10.245Z,100262.95
2019-04-06T10:21:52.447Z,100265.67
2019-04-06T10:24:39.069Z,100260.77
2019-04-06T10:27:09.216Z,100253.66
2019-04-06T10:29:48.394Z,100256.80
2019-04-06T10:32:26.366Z,100256.87
2019-04-06T10:35:05.316Z,100254.48
2019-04-06T10:37:41.016Z,100257.97
2019-04-06T10:40:13.541Z,100258.31
2019-04-06T10:42:43.586Z,100254.95
2019-04-06T10:45:20.259Z,100254.29
2019-04-06T10:47:52.789Z,100257.13
2019-04-06T10:50:31.902Z,100249.73
2019-04-06T10:53:02.183Z,100259.25
2019-04-06T10:55:44.244Z,100260.23
2019-04-06T10:58:14.362Z,100260.00
2019-04-06T11:00:53.716Z,100249.69
2019-04-06T11:03:35.972Z,100253.52
2019-04-06T11:06:22.871Z,100253.23
2019-04-06T11:08:55.439Z,100253.05
2019-04-06T11:11:42.191Z,100251.54
2019-04-06T11:14:28.420Z,100249.28
2019-04-06T11:17:13.893Z,100246.72
2019-04-06T11:19:44.013Z,100246.41
2019-04-06T11:22:23.376Z,100236.17
2019-04-06T11:24:59.543Z,100244.41
2019-04-06T11:27:29.735Z,100249.34
2019-04-06T11:30:12.147Z,100244.32
2019-04-06T11:32:34.348Z,100243.47
2019-04-06T11:35:10.601Z,100237.45
2019-04-06T11:37:46.486Z,100243.39
2019-04-06T11:40:28.762Z,100228.38
2019-04-06T11:43:13.681Z,100234.35
2019-04-06T11:45:43.867Z,100235.93
2019-04-06T11:48:28.744Z,100234.01
2019-04-06T11:51:14.230Z,100239.19
2019-04-06T11:53:44.534Z,100239.19
2019-04-06T11:56:17.398Z,100230.84
2019-04-06T11:58:49.958Z,100233.39
2019-04-06T12:01:20.097Z,100222.63
2019-04-06T12:03:59.463Z,100228.07
2019-04-06T12:06:35.964Z,100214.76
2019-04-06T12:09:08.405Z,100222.59
2019-04-06T12:11:41.080Z,100214.96
2019-04-06T12:14:14.256Z,100217.72
2019-04-06T12:16:44.419Z,100219.48
2019-04-06T12:19:17.341Z,100212.28
2019-04-06T12:22:02.505Z,100212.81
2019-04-06T12:24:41.265Z,100209.77
2019-04-06T12:27:26.144Z,100199.41
2019-04-06T12:29:59.010Z,100206.73
2019-04-06T12:32:45.355Z,100201.19
2019-04-06T12:35:31.410Z,100206.99
2019-04-06T12:38:04.476Z,100199.23
2019-04-06T12:40:49.627Z,100199.34
2019-04-06T12:43:31.259Z,100190.88
2019-04-06T12:46:01.099Z,100192.80
2019-04-06T12:48:37.346Z,100198.66
2019-04-06T12:51:10.637Z,100192.51
2019-04-06T12:53:40.741Z,100187.95
2019-04-06T12:56:28.601Z,100183.05
2019-04-06T12:59:02.115Z,100181.14
2019-04-06T13:01:34.953Z,100185.30
2019-04-06T13:04:11.060Z,100175.33
2019-04-06T13:06:44.572Z,100175.59
2019-04-06T13:09:29.824Z,100178.77
2019-04-06T13:11:59.934Z,100178.77
2019-04-06T13:14:33.273Z,100175.11
2019-04-06T13:17:04.282Z,100164.26
2019-04-06T13:19:34.414Z,100164.26
2019-04-06T13:22:19.866Z,100169.65
2019-04-06T13:25:08.409Z,100170.44
2019-04-06T13:27:38.628Z,100161.73
2019-04-06T13:30:08.928Z,100160.35
2019-04-06T13:32:44.872Z,100158.22
2019-04-06T13:35:15.268Z,100158.33
2019-04-06T13:38:01.637Z,100161.56
2019-04-06T13:40:44.070Z,100166.45
2019-04-06T13:43:14.192Z,100164.73
2019-04-06T13:45:50.286Z,100165.24
2019-04-06T13:48:20.694Z,100153.16
2019-04-06T13:50:50.804Z,100153.77
2019-04-06T13:53:21.369Z,100158.57
2019-04-06T13:55:51.853Z,100158.30
2019-04-06T13:58:22.044Z,100143.73
2019-04-06T14:01:12.633Z,100149.19
2019-04-06T14:03:32.917Z,100146.75
2019-04-06T14:06:09.455Z,100143.91
2019-04-06T14:08:52.245Z,100144.86
2019-04-06T14:11:34.623Z,100144.31
2019-04-06T14:14:04.722Z,100149.98
2019-04-06T14:16:34.845Z,100145.41
2019-04-06T14:19:07.498Z,100152.20
2019-04-06T14:21:46.869Z,100146.31
2019-04-06T14:24:25.751Z,100156.85
2019-04-06T14:27:14.095Z,100159.36
2019-04-06T14:29:53.558Z,100154.52
2019-04-06T14:32:23.713Z,100155.22
2019-04-06T14:34:59.815Z,100154.05
2019-04-06T14:37:50.617Z,100154.34
2019-04-06T14:40:30.339Z,100151.16
2019-04-06T14:43:11.138Z,100147.47
2019-04-06T14:45:41.487Z,100146.04
2019-04-06T14:48:20.613Z,100152.15
2019-04-06T14:50:50.823Z,100153.64
2019-04-06T14:53:27.134Z,100156.78
2019-04-06T14:56:00.191Z,100156.85
2019-04-06T14:58:33.129Z,100156.25
2019-04-06T15:01:12.364Z,100156.41
2019-04-06T15:03:59.060Z,100150.34
2019-04-06T15:06:38.005Z,100149.24
2019-04-06T15:09:19.023Z,100151.14
2019-04-06T15:11:58.099Z,100157.27
2019-04-06T15:14:34.319Z,100151.62
2019-04-06T15:17:22.226Z,100156.62
2019-04-06T15:19:58.516Z,100150.33
2019-04-06T15:22:37.604Z,100158.25
2019-04-06T15:25:08.426Z,100157.45
2019-04-06T15:27:41.858Z,100158.09
2019-04-06T15:30:12.664Z,100157.30
2019-04-06T15:32:43.178Z,100148.95
2019-04-06T15:35:13.606Z,100154.42
2019-04-06T15:37:46.519Z,100152.02
2019-04-06T15:40:17.007Z,100154.85
2019-04-06T15:42:47.447Z,100155.99
2019-04-06T15:45:20.367Z,100158.95
2019-04-06T15:47:53.693Z,100155.74
2019-04-06T15:50:39.094Z,100158.48
2019-04-06T15:53:25.417Z,100156.59
2019-04-06T15:55:55.525Z,100160.92
2019-04-06T15:58:26.155Z,100162.30
2019-04-06T16:00:56.423Z,100157.38
2019-04-06T16:03:38.791Z,100164.47
2019-04-06T16:06:20.818Z,100162.25
2019-04-06T16:08:50.996Z,100158.70
2019-04-06T16:11:23.656Z,100161.41
2019-04-06T16:14:10.124Z,100157.88
2019-04-06T16:16:49.144Z,100158.67
2019-04-06T16:19:35.757Z,100162.16
2019-04-06T16:22:06.748Z,100159.28
2019-04-06T16:24:42.673Z,100158.20
2019-04-06T16:27:20.131Z,100155.48
2019-04-06T16:29:59.129Z,100159.62
2019-04-06T16:32:33.508Z,100162.05
2019-04-06T16:35:26.854Z,100158.72
2019-04-06T16:37:57.429Z,100163.86
2019-04-06T16:40:37.029Z,100166.28
2019-04-06T16:43:09.889Z,100169.56
2019-04-06T16:45:52.231Z,100164.41
2019-04-06T16:48:24.735Z,100163.78
2019-04-06T16:51:00.648Z,100160.98
2019-04-06T16:53:47.117Z,100161.95
2019-04-06T16:56:20.057Z,100158.95
2019-04-06T16:58:58.899Z,100167.04
2019-04-06T17:01:32.067Z,100162.92
2019-04-06T17:04:18.456Z,100169.81
2019-04-06T17:06:48.972Z,100166.02
2019-04-06T17:09:22.038Z,100170.12
2019-04-06T17:11:55.572Z,100173.82
2019-04-06T17:14:32.141Z,100174.05
2019-04-06T17:17:08.336Z,100174.78
2019-04-06T17:19:38.467Z,100174.47
2019-04-06T17:22:27.108Z,100179.86
2019-04-06T17:25:00.041Z,100176.11
2019-04-06T17:27:30.260Z,100174.47
2019-04-06T17:30:06.448Z,100178.78
2019-04-06T17:32:40.033Z,100177.30
2019-04-06T17:35:13.769Z,100180.47
2019-04-06T17:37:58.656Z,100179.44
2019-04-06T17:40:44.595Z,100180.25
2019-04-06T17:43:14.762Z,100182.61
2019-04-06T17:45:47.598Z,100188.85
2019-04-06T17:48:33.992Z,100187.42
2019-04-06T17:51:06.578Z,100189.84
2019-04-06T17:53:39.857Z,100198.08
2019-04-06T17:56:29.937Z,100201.52
2019-04-06T17:59:16.553Z,100210.10
2019-04-06T18:01:49.023Z,100207.05
2019-04-06T18:04:19.481Z,100208.49
2019-04-06T18:06:50.028Z,100210.83
2019-04-06T18:09:36.401Z,100215.33
2019-04-06T18:12:12.827Z,100216.64
2019-04-06T18:14:41.486Z,100218.33
2019-04-06T18:17:10.209Z,100221.51
2019-04-06T18:19:38.902Z,100228.91
2019-04-06T18:22:07.875Z,100227.80
2019-04-06T18:24:36.824Z,100227.70
2019-04-06T18:27:05.222Z,100226.83
2019-04-06T18:29:34.626Z,100236.02
2019-04-06T18:32:08.375Z,100235.23
2019-04-06T18:34:36.914Z,100238.70
2019-04-06T18:37:06.963Z,100235.42
2019-04-06T18:39:35.771Z,100243.63
2019-04-06T18:42:04.433Z,100242.84
2019-04-06T18:44:32.992Z,100238.26
2019-04-06T18:47:02.012Z,100244.02
2019-04-06T18:49:30.637Z,100243.89
2019-04-06T18:51:59.185Z,100245.53
2019-04-06T18:54:27.667Z,100250.37
2019-04-06T18:56:56.124Z,100245.89
2019-04-06T18:59:24.853Z,100249.02
2019-04-06T19:01:54.074Z,100243.92
2019-04-06T19:04:22.690Z,100250.76
2019-04-06T19:06:51.238Z,100258.56
2019-04-06T19:09:23.784Z,100256.55
2019-04-06T19:11:55.019Z,100258.09
2019-04-06T19:14:20.528Z,100250.56
2019-04-06T19:16:48.934Z,100251.98
2019-04-06T19:19:17.318Z,100257.36
2019-04-06T19:21:46.730Z,100254.66
2019-04-06T19:24:15.504Z,100253.48
2019-04-06T19:26:44.157Z,100251.48
2019-04-06T19:29:12.636Z,100254.87
2019-04-06T19:31:41.200Z,100248.85
2019-04-06T19:34:10.290Z,100254.78
2019-04-06T19:36:38.710Z,100248.80
2019-04-06T19:39:10.787Z,100246.09
2019-04-06T19:41:39.507Z,100251.48
2019-04-06T19:44:08.065Z,100253.45
2019-04-06T19:46:36.444Z,100253.19
2019-04-06T19:49:04.953Z,100259.97
2019-04-06T19:51:33.531Z,100258.83
2019-04-06T19:54:04.691Z,100258.16
2019-04-06T19:56:32.357Z,100261.32
2019-04-06T19:59:01.819Z,100260.20
2019-04-06T20:01:30.746Z,100257.05
2019-04-06T20:03:59.346Z,100260.05
2019-04-06T20:06:27.952Z,100258.41
2019-04-06T20:08:57.787Z,100256.27
2019-04-06T20:11:26.615Z,100254.50
2019-04-06T20:13:55.189Z,100255.32
2019-04-06T20:16:23.621Z,100255.98
2019-04-06T20:18:52.174Z,100258.00
2019-04-06T20:21:20.720Z,100253.63
2019-04-06T20:23:49.591Z,100256.98
2019-04-06T20:26:18.489Z,100261.80
2019-04-06T20:28:47.157Z,100261.03
2019-04-06T20:31:15.991Z,100255.47
2019-04-06T20:33:50.318Z,100254.13
2019-04-06T20:36:15.139Z,100264.56
2019-04-06T20:38:43.540Z,100247.91
2019-04-06T20:41:12.134Z,100253.42
2019-04-06T20:43:40.840Z,100255.83
2019-04-06T20:46:09.731Z,100251.35
2019-04-06T20:48:38.503Z,100254.24
2019-04-06T20:51:07.258Z,100248.97
2019-04-06T20:53:35.726Z,100252.05
2019-04-06T20:56:04.228Z,100255.34
2019-04-06T20:58:33.626Z,100252.77
2019-04-06T21:01:02.707Z,100251.61
2019-04-06T21:03:31.146Z,100251.24
2019-04-06T21:05:59.606Z,100256.52
2019-04-06T21:08:28.607Z,100256.00
2019-04-06T21:10:57.826Z,100247.66
2019-04-06T21:13:26.721Z,100252.94
2019-04-06T21:15:55.550Z,100253.69
2019-04-06T21:18:24.365Z,100255.78
2019-04-06T21:20:53.335Z,100258.44
2019-04-06T21:23:21.871Z,100254.95
2019-04-06T21:25:50.838Z,100258.88
2019-04-06T21:28:19.832Z,100256.03
2019-04-06T21:30:48.989Z,100261.72
2019-04-06T21:33:17.490Z,100258.95
2019-04-06T21:35:45.887Z,100253.36
2019-04-06T21:38:14.287Z,100257.58
2019-04-06T21:40:43.357Z,100251.38
2019-04-06T21:43:12.268Z,100250.55
2019-04-06T21:45:40.911Z,100254.77
2019-04-06T21:48:09.500Z,100246.69
2019-04-06T21:50:38.617Z,100248.17
2019-04-06T21:53:07.156Z,100250.19
2019-04-06T21:55:35.666Z,100241.73
2019-04-06T21:58:04.200Z,100245.20
2019-04-06T22:00:52.705Z,100239.13
2019-04-06T22:03:21.433Z,100243.17
2019-04-06T22:05:50.507Z,100241.00
2019-04-06T22:08:19.129Z,100237.89
2019-04-06T22:10:47.931Z,100240.45
2019-04-06T22:13:16.401Z,100242.84
2019-04-06T22:15:45.144Z,100240.89
2019-04-06T22:18:13.562Z,100238.38
2019-04-06T22:20:42.150Z,100240.55
2019-04-06T22:23:10.571Z,100238.59
2019-04-06T22:25:39.057Z,100233.95
2019-04-06T22:28:07.420Z,100235.86
2019-04-06T22:30:36.033Z,100230.61
2019-04-06T22:33:04.906Z,100233.22
2019-04-06T22:35:33.994Z,100225.23
2019-04-06T22:38:02.471Z,100217.94
2019-04-06T22:40:31.419Z,100228.23
2019-04-06T22:43:00.062Z,100223.23
2019-04-06T22:45:30.075Z,100225.70
2019-04-06T22:47:58.692Z,100223.31
2019-04-06T22:50:28.058Z,100219.72
2019-04-06T22:52:57.118Z,100221.75
2019-04-06T22:55:25.572Z,100220.84
2019-04-06T22:57:54.017Z,100222.11
2019-04-06T23:00:39.898Z,100214.50
2019-04-06T23:03:15.986Z,100220.02
2019-04-06T23:05:46.081Z,100217.71
2019-04-06T23:08:14.595Z,100218.09
2019-04-06T23:10:43.174Z,100221.09
2019-04-06T23:13:12.285Z,100218.61
2019-04-06T23:15:42.215Z,100215.23
2019-04-06T23:18:10.714Z,100219.64
2019-04-06T23:20:39.195Z,100217.99
2019-04-06T23:23:07.709Z,100218.52
2019-04-06T23:25:37.170Z,100222.68
2019-04-06T23:28:05.860Z,100225.37
2019-04-06T23:30:34.706Z,100222.68
2019-04-06T23:33:03.844Z,100221.19
2019-04-06T23:35:32.949Z,100214.59
2019-04-06T23:38:01.944Z,100221.31
2019-04-06T23:40:31.163Z,100222.52
2019-04-06T23:42:59.690Z,100222.95
2019-04-06T23:45:28.784Z,100221.59
2019-04-06T23:47:57.211Z,100219.68
2019-04-06T23:50:25.684Z,100221.02
2019-04-06T23:52:54.098Z,100223.53
2019-04-06T23:55:22.565Z,100221.88
2019-04-06T23:57:51.081Z,100225.34
